sensor_id;sensor_type;location;lat;lon;timestamp;temperature;humidity
66271;DHT22;53063;39.614;8.814;2022-09-03T00:02:06;24.80;89.30
66271;DHT22;53063;39.614;8.814;2022-09-03T00:04:59;24.80;89.10
66271;DHT22;53063;39.614;8.814;2022-09-03T00:10:01;24.70;89.10
66271;DHT22;53063;39.614;8.814;2022-09-03T00:12:35;24.70;89.20
66271;DHT22;53063;39.614;8.814;2022-09-03T00:18:07;24.70;88.70
66271;DHT22;53063;39.614;8.814;2022-09-03T00:20:40;24.70;88.80
66271;DHT22;53063;39.614;8.814;2022-09-03T00:23:08;24.70;88.60
66271;DHT22;53063;39.614;8.814;2022-09-03T00:25:48;24.70;88.50
66271;DHT22;53063;39.614;8.814;2022-09-03T00:28:33;24.70;88.10
66271;DHT22;53063;39.614;8.814;2022-09-03T00:33:54;24.70;87.70
66271;DHT22;53063;39.614;8.814;2022-09-03T00:36:40;24.70;87.40
66271;DHT22;53063;39.614;8.814;2022-09-03T00:39:14;24.60;87.20
66271;DHT22;53063;39.614;8.814;2022-09-03T00:44:40;24.60;86.50
66271;DHT22;53063;39.614;8.814;2022-09-03T00:50:19;24.50;85.80
66271;DHT22;53063;39.614;8.814;2022-09-03T00:53:14;24.50;85.50
66271;DHT22;53063;39.614;8.814;2022-09-03T00:56:01;24.50;85.30
66271;DHT22;53063;39.614;8.814;2022-09-03T01:01:48;24.50;85.10
66271;DHT22;53063;39.614;8.814;2022-09-03T01:13:41;24.50;85.70
66271;DHT22;53063;39.614;8.814;2022-09-03T01:16:27;24.50;85.70
66271;DHT22;53063;39.614;8.814;2022-09-03T01:25:19;24.50;85.80
66271;DHT22;53063;39.614;8.814;2022-09-03T01:30:39;24.50;85.60
66271;DHT22;53063;39.614;8.814;2022-09-03T01:35:54;24.50;85.80
66271;DHT22;53063;39.614;8.814;2022-09-03T01:46:42;24.60;84.90
66271;DHT22;53063;39.614;8.814;2022-09-03T01:49:35;24.70;84.50
66271;DHT22;53063;39.614;8.814;2022-09-03T01:55:50;24.70;84.30
66271;DHT22;53063;39.614;8.814;2022-09-03T01:58:11;24.70;84.10
66271;DHT22;53063;39.614;8.814;2022-09-03T02:00:40;24.60;84.10
66271;DHT22;53063;39.614;8.814;2022-09-03T02:03:09;24.60;84.00
66271;DHT22;53063;39.614;8.814;2022-09-03T02:05:35;24.60;84.10
66271;DHT22;53063;39.614;8.814;2022-09-03T02:08:05;24.60;84.00
66271;DHT22;53063;39.614;8.814;2022-09-03T02:10:48;24.70;83.90
66271;DHT22;53063;39.614;8.814;2022-09-03T02:13:31;24.60;83.70
66271;DHT22;53063;39.614;8.814;2022-09-03T02:16:02;24.60;83.70
66271;DHT22;53063;39.614;8.814;2022-09-03T02:18:37;24.60;83.60
66271;DHT22;53063;39.614;8.814;2022-09-03T02:21:06;24.60;83.30
66271;DHT22;53063;39.614;8.814;2022-09-03T02:23:32;24.60;83.20
66271;DHT22;53063;39.614;8.814;2022-09-03T02:26:02;24.60;83.20
66271;DHT22;53063;39.614;8.814;2022-09-03T02:28:29;24.70;83.20
66271;DHT22;53063;39.614;8.814;2022-09-03T02:30:56;24.70;82.90
66271;DHT22;53063;39.614;8.814;2022-09-03T02:33:23;24.60;82.90
66271;DHT22;53063;39.614;8.814;2022-09-03T02:35:50;24.60;82.90
66271;DHT22;53063;39.614;8.814;2022-09-03T02:38:25;24.60;82.80
66271;DHT22;53063;39.614;8.814;2022-09-03T02:40:51;24.60;82.50
66271;DHT22;53063;39.614;8.814;2022-09-03T02:43:32;24.60;82.10
66271;DHT22;53063;39.614;8.814;2022-09-03T02:46:02;24.60;82.00
66271;DHT22;53063;39.614;8.814;2022-09-03T02:48:28;24.60;81.90
66271;DHT22;53063;39.614;8.814;2022-09-03T02:50:55;24.60;81.90
66271;DHT22;53063;39.614;8.814;2022-09-03T02:53:21;24.60;81.80
66271;DHT22;53063;39.614;8.814;2022-09-03T02:55:47;24.60;81.70
66271;DHT22;53063;39.614;8.814;2022-09-03T02:58:13;24.60;81.70
66271;DHT22;53063;39.614;8.814;2022-09-03T03:00:39;24.60;81.60
66271;DHT22;53063;39.614;8.814;2022-09-03T03:03:05;24.60;81.60
66271;DHT22;53063;39.614;8.814;2022-09-03T03:05:47;24.60;81.70
66271;DHT22;53063;39.614;8.814;2022-09-03T03:08:14;24.60;81.80
66271;DHT22;53063;39.614;8.814;2022-09-03T03:10:42;24.60;81.90
66271;DHT22;53063;39.614;8.814;2022-09-03T03:13:10;24.60;82.00
66271;DHT22;53063;39.614;8.814;2022-09-03T03:15:36;24.60;82.20
66271;DHT22;53063;39.614;8.814;2022-09-03T03:18:02;24.60;82.50
66271;DHT22;53063;39.614;8.814;2022-09-03T03:20:28;24.60;82.70
66271;DHT22;53063;39.614;8.814;2022-09-03T03:22:54;24.60;82.70
66271;DHT22;53063;39.614;8.814;2022-09-03T03:25:20;24.60;82.70
66271;DHT22;53063;39.614;8.814;2022-09-03T03:27:46;24.50;82.90
66271;DHT22;53063;39.614;8.814;2022-09-03T03:30:12;24.50;83.00
66271;DHT22;53063;39.614;8.814;2022-09-03T03:32:38;24.50;83.10
66271;DHT22;53063;39.614;8.814;2022-09-03T03:35:05;24.40;83.00
66271;DHT22;53063;39.614;8.814;2022-09-03T03:37:32;24.40;82.70
66271;DHT22;53063;39.614;8.814;2022-09-03T03:40:00;24.40;82.60
66271;DHT22;53063;39.614;8.814;2022-09-03T03:42:26;24.30;82.70
66271;DHT22;53063;39.614;8.814;2022-09-03T03:44:52;24.40;82.60
66271;DHT22;53063;39.614;8.814;2022-09-03T03:47:18;24.40;82.50
66271;DHT22;53063;39.614;8.814;2022-09-03T03:49:44;24.40;82.40
66271;DHT22;53063;39.614;8.814;2022-09-03T03:52:10;24.30;82.20
66271;DHT22;53063;39.614;8.814;2022-09-03T03:54:36;24.40;81.90
66271;DHT22;53063;39.614;8.814;2022-09-03T03:57:02;24.30;81.40
66271;DHT22;53063;39.614;8.814;2022-09-03T03:59:28;24.30;81.10
66271;DHT22;53063;39.614;8.814;2022-09-03T04:01:54;24.30;80.90
66271;DHT22;53063;39.614;8.814;2022-09-03T04:04:20;24.30;80.80
66271;DHT22;53063;39.614;8.814;2022-09-03T04:06:46;24.30;80.80
66271;DHT22;53063;39.614;8.814;2022-09-03T04:09:12;24.30;80.60
66271;DHT22;53063;39.614;8.814;2022-09-03T04:11:38;24.30;80.30
66271;DHT22;53063;39.614;8.814;2022-09-03T04:14:04;24.20;80.40
66271;DHT22;53063;39.614;8.814;2022-09-03T04:16:30;24.20;80.20
66271;DHT22;53063;39.614;8.814;2022-09-03T04:18:58;24.20;80.00
66271;DHT22;53063;39.614;8.814;2022-09-03T04:21:28;24.20;79.90
66271;DHT22;53063;39.614;8.814;2022-09-03T04:23:56;24.10;79.80
66271;DHT22;53063;39.614;8.814;2022-09-03T04:26:25;24.10;80.10
66271;DHT22;53063;39.614;8.814;2022-09-03T04:28:56;24.10;79.90
66271;DHT22;53063;39.614;8.814;2022-09-03T04:31:23;24.10;79.80
66271;DHT22;53063;39.614;8.814;2022-09-03T04:33:49;24.10;79.70
66271;DHT22;53063;39.614;8.814;2022-09-03T04:36:17;24.10;79.70
66271;DHT22;53063;39.614;8.814;2022-09-03T04:38:45;24.10;79.60
66271;DHT22;53063;39.614;8.814;2022-09-03T04:41:14;24.00;79.50
66271;DHT22;53063;39.614;8.814;2022-09-03T04:43:40;24.00;79.60
66271;DHT22;53063;39.614;8.814;2022-09-03T04:46:09;24.00;79.50
66271;DHT22;53063;39.614;8.814;2022-09-03T04:48:36;24.00;79.30
66271;DHT22;53063;39.614;8.814;2022-09-03T04:51:08;24.10;79.10
66271;DHT22;53063;39.614;8.814;2022-09-03T04:53:36;24.20;78.70
66271;DHT22;53063;39.614;8.814;2022-09-03T04:56:10;24.20;78.60
66271;DHT22;53063;39.614;8.814;2022-09-03T04:58:36;24.20;78.40
66271;DHT22;53063;39.614;8.814;2022-09-03T05:01:18;24.30;78.20
66271;DHT22;53063;39.614;8.814;2022-09-03T05:03:45;24.30;77.90
66271;DHT22;53063;39.614;8.814;2022-09-03T05:06:11;24.30;77.90
66271;DHT22;53063;39.614;8.814;2022-09-03T05:08:38;24.40;77.60
66271;DHT22;53063;39.614;8.814;2022-09-03T05:11:06;24.40;77.60
66271;DHT22;53063;39.614;8.814;2022-09-03T05:13:33;24.40;77.30
66271;DHT22;53063;39.614;8.814;2022-09-03T05:16:01;24.40;77.30
66271;DHT22;53063;39.614;8.814;2022-09-03T05:18:27;24.40;77.20
66271;DHT22;53063;39.614;8.814;2022-09-03T05:20:58;24.40;77.00
66271;DHT22;53063;39.614;8.814;2022-09-03T05:23:26;24.40;77.20
66271;DHT22;53063;39.614;8.814;2022-09-03T05:25:56;24.40;77.30
66271;DHT22;53063;39.614;8.814;2022-09-03T05:28:24;24.40;77.40
66271;DHT22;53063;39.614;8.814;2022-09-03T05:31:18;24.40;77.40
66271;DHT22;53063;39.614;8.814;2022-09-03T05:33:47;24.50;77.80
66271;DHT22;53063;39.614;8.814;2022-09-03T05:36:18;24.60;78.60
66271;DHT22;53063;39.614;8.814;2022-09-03T05:38:45;24.60;79.10
66271;DHT22;53063;39.614;8.814;2022-09-03T05:41:13;24.60;79.90
66271;DHT22;53063;39.614;8.814;2022-09-03T05:43:40;24.60;80.30
66271;DHT22;53063;39.614;8.814;2022-09-03T05:46:09;24.70;80.60
66271;DHT22;53063;39.614;8.814;2022-09-03T05:48:37;24.80;80.80
66271;DHT22;53063;39.614;8.814;2022-09-03T05:51:12;24.80;80.90
66271;DHT22;53063;39.614;8.814;2022-09-03T05:53:41;24.80;81.20
66271;DHT22;53063;39.614;8.814;2022-09-03T05:56:10;24.80;81.50
66271;DHT22;53063;39.614;8.814;2022-09-03T05:58:42;24.80;81.60
66271;DHT22;53063;39.614;8.814;2022-09-03T06:01:18;24.80;81.80
66271;DHT22;53063;39.614;8.814;2022-09-03T06:03:47;24.80;82.30
66271;DHT22;53063;39.614;8.814;2022-09-03T06:06:13;24.90;82.90
66271;DHT22;53063;39.614;8.814;2022-09-03T06:08:40;24.90;83.60
66271;DHT22;53063;39.614;8.814;2022-09-03T06:11:07;24.90;83.90
66271;DHT22;53063;39.614;8.814;2022-09-03T06:13:34;24.90;84.00
66271;DHT22;53063;39.614;8.814;2022-09-03T06:16:03;24.90;82.80
66271;DHT22;53063;39.614;8.814;2022-09-03T06:18:29;25.00;82.30
66271;DHT22;53063;39.614;8.814;2022-09-03T06:20:57;25.00;82.60
66271;DHT22;53063;39.614;8.814;2022-09-03T06:23:23;25.10;82.80
66271;DHT22;53063;39.614;8.814;2022-09-03T06:28:26;25.10;82.50
66271;DHT22;53063;39.614;8.814;2022-09-03T06:30:53;25.20;82.00
66271;DHT22;53063;39.614;8.814;2022-09-03T06:33:22;25.20;81.90
66271;DHT22;53063;39.614;8.814;2022-09-03T06:35:53;25.20;82.10
66271;DHT22;53063;39.614;8.814;2022-09-03T06:38:23;25.30;82.20
66271;DHT22;53063;39.614;8.814;2022-09-03T06:40:59;25.40;82.90
66271;DHT22;53063;39.614;8.814;2022-09-03T06:43:31;25.40;83.60
66271;DHT22;53063;39.614;8.814;2022-09-03T06:45:59;25.40;83.60
66271;DHT22;53063;39.614;8.814;2022-09-03T06:48:27;25.40;83.50
66271;DHT22;53063;39.614;8.814;2022-09-03T06:50:57;25.40;83.80
66271;DHT22;53063;39.614;8.814;2022-09-03T06:53:28;25.50;83.80
66271;DHT22;53063;39.614;8.814;2022-09-03T06:55:56;25.40;83.60
66271;DHT22;53063;39.614;8.814;2022-09-03T06:58:24;25.50;83.70
66271;DHT22;53063;39.614;8.814;2022-09-03T07:00:50;25.50;83.70
66271;DHT22;53063;39.614;8.814;2022-09-03T07:03:20;25.50;83.30
66271;DHT22;53063;39.614;8.814;2022-09-03T07:05:46;25.50;83.50
66271;DHT22;53063;39.614;8.814;2022-09-03T07:08:13;25.50;83.50
66271;DHT22;53063;39.614;8.814;2022-09-03T07:10:39;25.60;83.50
66271;DHT22;53063;39.614;8.814;2022-09-03T07:13:05;25.60;83.30
66271;DHT22;53063;39.614;8.814;2022-09-03T07:15:32;25.60;83.20
66271;DHT22;53063;39.614;8.814;2022-09-03T07:17:58;25.70;83.10
66271;DHT22;53063;39.614;8.814;2022-09-03T07:20:25;25.80;82.80
66271;DHT22;53063;39.614;8.814;2022-09-03T07:22:55;26.00;82.50
66271;DHT22;53063;39.614;8.814;2022-09-03T07:25:23;26.30;81.40
66271;DHT22;53063;39.614;8.814;2022-09-03T07:27:49;26.80;79.90
66271;DHT22;53063;39.614;8.814;2022-09-03T07:30:16;26.60;79.20
66271;DHT22;53063;39.614;8.814;2022-09-03T07:32:45;26.40;79.80
66271;DHT22;53063;39.614;8.814;2022-09-03T07:35:11;26.70;79.90
66271;DHT22;53063;39.614;8.814;2022-09-03T07:37:41;26.90;79.00
66271;DHT22;53063;39.614;8.814;2022-09-03T07:40:08;27.00;78.40
66271;DHT22;53063;39.614;8.814;2022-09-03T07:42:36;27.20;77.80
66271;DHT22;53063;39.614;8.814;2022-09-03T07:45:06;27.30;77.10
66271;DHT22;53063;39.614;8.814;2022-09-03T07:47:35;27.40;77.50
66271;DHT22;53063;39.614;8.814;2022-09-03T07:50:05;27.30;77.50
66271;DHT22;53063;39.614;8.814;2022-09-03T07:52:31;27.30;77.60
66271;DHT22;53063;39.614;8.814;2022-09-03T07:54:57;27.70;76.30
66271;DHT22;53063;39.614;8.814;2022-09-03T07:57:24;28.10;74.90
66271;DHT22;53063;39.614;8.814;2022-09-03T07:59:50;28.30;73.90
66271;DHT22;53063;39.614;8.814;2022-09-03T08:02:16;28.20;73.10
66271;DHT22;53063;39.614;8.814;2022-09-03T08:04:41;28.20;73.80
66271;DHT22;53063;39.614;8.814;2022-09-03T08:07:08;28.20;73.80
66271;DHT22;53063;39.614;8.814;2022-09-03T08:09:34;28.10;72.30
66271;DHT22;53063;39.614;8.814;2022-09-03T08:12:00;28.30;72.10
66271;DHT22;53063;39.614;8.814;2022-09-03T08:14:26;28.60;71.00
66271;DHT22;53063;39.614;8.814;2022-09-03T08:16:52;28.90;69.60
66271;DHT22;53063;39.614;8.814;2022-09-03T08:19:18;29.20;68.50
66271;DHT22;53063;39.614;8.814;2022-09-03T08:21:44;29.20;67.10
66271;DHT22;53063;39.614;8.814;2022-09-03T08:24:11;29.40;67.80
66271;DHT22;53063;39.614;8.814;2022-09-03T08:26:39;29.70;66.30
66271;DHT22;53063;39.614;8.814;2022-09-03T08:29:07;29.80;64.30
66271;DHT22;53063;39.614;8.814;2022-09-03T08:31:34;29.90;63.10
66271;DHT22;53063;39.614;8.814;2022-09-03T08:34:02;29.90;62.40
66271;DHT22;53063;39.614;8.814;2022-09-03T08:36:31;30.20;61.20
66271;DHT22;53063;39.614;8.814;2022-09-03T08:39:00;31.00;58.60
66271;DHT22;53063;39.614;8.814;2022-09-03T08:44:29;30.90;56.70
66271;DHT22;53063;39.614;8.814;2022-09-03T08:50:00;31.20;57.30
66271;DHT22;53063;39.614;8.814;2022-09-03T08:52:32;31.50;55.00
66271;DHT22;53063;39.614;8.814;2022-09-03T08:55:30;31.40;56.40
66271;DHT22;53063;39.614;8.814;2022-09-03T09:03:35;32.40;53.30
66271;DHT22;53063;39.614;8.814;2022-09-03T09:22:58;32.80;50.80
66271;DHT22;53063;39.614;8.814;2022-09-03T09:25:25;32.90;48.30
66271;DHT22;53063;39.614;8.814;2022-09-03T09:30:21;33.50;48.20
66271;DHT22;53063;39.614;8.814;2022-09-03T09:32:47;34.00;47.60
66271;DHT22;53063;39.614;8.814;2022-09-03T09:35:14;34.10;46.60
66271;DHT22;53063;39.614;8.814;2022-09-03T09:37:56;33.80;47.10
66271;DHT22;53063;39.614;8.814;2022-09-03T09:43:05;34.00;45.90
66271;DHT22;53063;39.614;8.814;2022-09-03T09:45:32;34.00;46.50
66271;DHT22;53063;39.614;8.814;2022-09-03T09:48:05;33.30;47.90
66271;DHT22;53063;39.614;8.814;2022-09-03T09:50:32;33.20;46.60
66271;DHT22;53063;39.614;8.814;2022-09-03T09:53:00;33.20;47.10
66271;DHT22;53063;39.614;8.814;2022-09-03T09:55:32;34.20;45.80
66271;DHT22;53063;39.614;8.814;2022-09-03T09:58:06;34.80;44.40
66271;DHT22;53063;39.614;8.814;2022-09-03T10:00:34;34.30;42.40
66271;DHT22;53063;39.614;8.814;2022-09-03T10:03:08;33.70;44.50
66271;DHT22;53063;39.614;8.814;2022-09-03T10:05:36;33.90;41.30
66271;DHT22;53063;39.614;8.814;2022-09-03T10:08:15;33.50;38.90
66271;DHT22;53063;39.614;8.814;2022-09-03T10:10:48;33.30;40.20
66271;DHT22;53063;39.614;8.814;2022-09-03T10:13:22;33.00;40.00
66271;DHT22;53063;39.614;8.814;2022-09-03T10:16:23;33.10;40.60
66271;DHT22;53063;39.614;8.814;2022-09-03T10:18:56;33.10;40.40
66271;DHT22;53063;39.614;8.814;2022-09-03T10:26:42;32.90;42.90
66271;DHT22;53063;39.614;8.814;2022-09-03T10:29:19;32.90;42.70
66271;DHT22;53063;39.614;8.814;2022-09-03T10:32:19;32.90;42.20
66271;DHT22;53063;39.614;8.814;2022-09-03T10:34:59;32.70;42.20
66271;DHT22;53063;39.614;8.814;2022-09-03T10:37:43;32.50;45.10
66271;DHT22;53063;39.614;8.814;2022-09-03T10:51:33;33.20;41.70
66271;DHT22;53063;39.614;8.814;2022-09-03T10:54:22;33.00;42.20
66271;DHT22;53063;39.614;8.814;2022-09-03T10:56:53;32.80;42.80
66271;DHT22;53063;39.614;8.814;2022-09-03T11:05:18;33.30;42.60
66271;DHT22;53063;39.614;8.814;2022-09-03T11:07:52;33.50;43.20
66271;DHT22;53063;39.614;8.814;2022-09-03T11:10:27;33.50;40.90
66271;DHT22;53063;39.614;8.814;2022-09-03T11:13:25;33.40;38.80
66271;DHT22;53063;39.614;8.814;2022-09-03T11:16:01;33.10;40.70
66271;DHT22;53063;39.614;8.814;2022-09-03T11:18:43;33.60;40.50
66271;DHT22;53063;39.614;8.814;2022-09-03T11:21:13;33.60;41.80
66271;DHT22;53063;39.614;8.814;2022-09-03T11:23:43;33.50;42.20
66271;DHT22;53063;39.614;8.814;2022-09-03T11:26:12;33.50;42.10
66271;DHT22;53063;39.614;8.814;2022-09-03T11:31:37;33.40;42.40
66271;DHT22;53063;39.614;8.814;2022-09-03T11:34:14;33.40;42.60
66271;DHT22;53063;39.614;8.814;2022-09-03T11:36:40;33.90;42.70
66271;DHT22;53063;39.614;8.814;2022-09-03T11:41:43;34.20;41.70
66271;DHT22;53063;39.614;8.814;2022-09-03T11:44:22;34.00;42.40
66271;DHT22;53063;39.614;8.814;2022-09-03T11:46:56;33.80;42.10
66271;DHT22;53063;39.614;8.814;2022-09-03T11:49:30;33.60;42.80
66271;DHT22;53063;39.614;8.814;2022-09-03T11:52:04;33.40;43.90
66271;DHT22;53063;39.614;8.814;2022-09-03T11:54:43;33.40;43.60
66271;DHT22;53063;39.614;8.814;2022-09-03T11:57:15;33.40;43.60
66271;DHT22;53063;39.614;8.814;2022-09-03T11:59:46;33.60;43.30
66271;DHT22;53063;39.614;8.814;2022-09-03T12:11:01;34.90;40.50
66271;DHT22;53063;39.614;8.814;2022-09-03T12:19:51;35.00;39.10
66271;DHT22;53063;39.614;8.814;2022-09-03T12:21:58;34.60;40.40
66271;DHT22;53063;39.614;8.814;2022-09-03T12:24:28;34.70;40.40
66271;DHT22;53063;39.614;8.814;2022-09-03T12:26:57;34.70;40.90
66271;DHT22;53063;39.614;8.814;2022-09-03T12:29:27;35.10;40.60
66271;DHT22;53063;39.614;8.814;2022-09-03T12:31:54;34.90;40.70
66271;DHT22;53063;39.614;8.814;2022-09-03T12:34:23;34.50;40.90
66271;DHT22;53063;39.614;8.814;2022-09-03T12:36:53;34.10;43.40
66271;DHT22;53063;39.614;8.814;2022-09-03T12:39:24;34.20;42.40
66271;DHT22;53063;39.614;8.814;2022-09-03T12:42:03;34.50;42.00
66271;DHT22;53063;39.614;8.814;2022-09-03T12:49:36;37.20;34.80
66271;DHT22;53063;39.614;8.814;2022-09-03T12:52:20;37.30;34.90
66271;DHT22;53063;39.614;8.814;2022-09-03T12:55:10;37.20;36.00
66271;DHT22;53063;39.614;8.814;2022-09-03T12:57:44;37.20;35.30
66271;DHT22;53063;39.614;8.814;2022-09-03T13:00:15;37.40;33.00
66271;DHT22;53063;39.614;8.814;2022-09-03T13:05:20;37.20;38.40
66271;DHT22;53063;39.614;8.814;2022-09-03T13:07:53;37.40;37.80
66271;DHT22;53063;39.614;8.814;2022-09-03T13:10:27;37.30;39.40
66271;DHT22;53063;39.614;8.814;2022-09-03T13:13:02;37.40;38.90
66271;DHT22;53063;39.614;8.814;2022-09-03T13:15:32;37.50;38.50
66271;DHT22;53063;39.614;8.814;2022-09-03T13:18:15;37.00;38.30
66271;DHT22;53063;39.614;8.814;2022-09-03T13:21:18;36.70;39.80
66271;DHT22;53063;39.614;8.814;2022-09-03T13:23:49;36.90;40.90
66271;DHT22;53063;39.614;8.814;2022-09-03T13:31:36;36.80;39.70
66271;DHT22;53063;39.614;8.814;2022-09-03T13:34:21;36.70;39.70
66271;DHT22;53063;39.614;8.814;2022-09-03T13:37:02;36.30;40.00
66271;DHT22;53063;39.614;8.814;2022-09-03T13:39:51;36.30;40.00
66271;DHT22;53063;39.614;8.814;2022-09-03T13:45:07;36.00;39.40
66271;DHT22;53063;39.614;8.814;2022-09-03T13:47:39;35.50;38.70
66271;DHT22;53063;39.614;8.814;2022-09-03T13:50:35;35.80;35.80
66271;DHT22;53063;39.614;8.814;2022-09-03T13:53:07;35.90;36.90
66271;DHT22;53063;39.614;8.814;2022-09-03T13:55:48;35.90;37.30
66271;DHT22;53063;39.614;8.814;2022-09-03T14:01:21;35.60;38.20
66271;DHT22;53063;39.614;8.814;2022-09-03T14:03:54;35.70;38.40
66271;DHT22;53063;39.614;8.814;2022-09-03T14:06:48;35.40;38.80
66271;DHT22;53063;39.614;8.814;2022-09-03T14:09:34;35.30;41.10
66271;DHT22;53063;39.614;8.814;2022-09-03T14:12:18;35.30;40.10
66271;DHT22;53063;39.614;8.814;2022-09-03T14:14:55;35.20;38.10
66271;DHT22;53063;39.614;8.814;2022-09-03T14:26:06;34.80;39.60
66271;DHT22;53063;39.614;8.814;2022-09-03T14:28:39;34.60;40.80
66271;DHT22;53063;39.614;8.814;2022-09-03T14:56:15;34.20;38.40
66271;DHT22;53063;39.614;8.814;2022-09-03T15:01:32;34.00;35.50
66271;DHT22;53063;39.614;8.814;2022-09-03T15:13:10;34.00;32.70
66271;DHT22;53063;39.614;8.814;2022-09-03T15:15:45;33.90;34.70
66271;DHT22;53063;39.614;8.814;2022-09-03T15:30:11;33.80;35.50
66271;DHT22;53063;39.614;8.814;2022-09-03T15:41:00;33.00;37.10
66271;DHT22;53063;39.614;8.814;2022-09-03T15:43:31;32.80;40.20
66271;DHT22;53063;39.614;8.814;2022-09-03T15:57:09;32.30;43.20
66271;DHT22;53063;39.614;8.814;2022-09-03T15:59:51;32.30;43.60
66271;DHT22;53063;39.614;8.814;2022-09-03T16:07:58;32.10;43.60
66271;DHT22;53063;39.614;8.814;2022-09-03T16:10:45;32.20;43.80
66271;DHT22;53063;39.614;8.814;2022-09-03T16:16:23;32.20;44.00
66271;DHT22;53063;39.614;8.814;2022-09-03T16:24:58;31.90;45.30
66271;DHT22;53063;39.614;8.814;2022-09-03T16:27:22;31.70;45.70
66271;DHT22;53063;39.614;8.814;2022-09-03T16:30:10;31.60;45.40
66271;DHT22;53063;39.614;8.814;2022-09-03T16:35:23;31.40;46.10
66271;DHT22;53063;39.614;8.814;2022-09-03T16:40:59;31.40;46.60
66271;DHT22;53063;39.614;8.814;2022-09-03T16:43:38;31.30;46.60
66271;DHT22;53063;39.614;8.814;2022-09-03T17:05:02;30.80;48.40
66271;DHT22;53063;39.614;8.814;2022-09-03T17:10:22;30.60;49.60
66271;DHT22;53063;39.614;8.814;2022-09-03T17:16:33;30.40;53.70
66271;DHT22;53063;39.614;8.814;2022-09-03T17:19:13;30.10;55.50
66271;DHT22;53063;39.614;8.814;2022-09-03T17:24:58;29.60;58.40
66271;DHT22;53063;39.614;8.814;2022-09-03T17:27:55;29.60;56.20
66271;DHT22;53063;39.614;8.814;2022-09-03T17:36:37;29.40;58.20
66271;DHT22;53063;39.614;8.814;2022-09-03T17:50:41;29.10;59.20
66271;DHT22;53063;39.614;8.814;2022-09-03T17:55:33;29.00;59.30
66271;DHT22;53063;39.614;8.814;2022-09-03T18:01:25;28.90;60.20
66271;DHT22;53063;39.614;8.814;2022-09-03T18:03:57;28.90;60.50
66271;DHT22;53063;39.614;8.814;2022-09-03T18:11:38;28.70;61.50
66271;DHT22;53063;39.614;8.814;2022-09-03T18:14:23;28.60;62.20
66271;DHT22;53063;39.614;8.814;2022-09-03T18:19:53;28.70;62.00
66271;DHT22;53063;39.614;8.814;2022-09-03T18:23:00;28.70;62.60
66271;DHT22;53063;39.614;8.814;2022-09-03T18:25:51;28.50;63.00
66271;DHT22;53063;39.614;8.814;2022-09-03T18:28:41;28.40;63.50
66271;DHT22;53063;39.614;8.814;2022-09-03T18:31:28;28.50;64.20
66271;DHT22;53063;39.614;8.814;2022-09-03T18:34:12;28.40;63.50
66271;DHT22;53063;39.614;8.814;2022-09-03T18:36:58;28.30;64.60
66271;DHT22;53063;39.614;8.814;2022-09-03T18:39:46;28.20;64.70
66271;DHT22;53063;39.614;8.814;2022-09-03T18:49:35;28.20;64.50
66271;DHT22;53063;39.614;8.814;2022-09-03T18:52:36;28.20;64.60
66271;DHT22;53063;39.614;8.814;2022-09-03T18:56:14;28.10;65.20
66271;DHT22;53063;39.614;8.814;2022-09-03T19:13:06;27.90;67.90
66271;DHT22;53063;39.614;8.814;2022-09-03T19:15:30;27.60;69.00
66271;DHT22;53063;39.614;8.814;2022-09-03T19:21:26;27.60;70.00
66271;DHT22;53063;39.614;8.814;2022-09-03T19:24:12;27.70;70.40
66271;DHT22;53063;39.614;8.814;2022-09-03T19:48:11;27.00;70.80
66271;DHT22;53063;39.614;8.814;2022-09-03T19:51:24;27.00;70.70
66271;DHT22;53063;39.614;8.814;2022-09-03T19:54:10;26.90;70.70
66271;DHT22;53063;39.614;8.814;2022-09-03T19:56:56;26.60;71.20
66271;DHT22;53063;39.614;8.814;2022-09-03T19:59:43;26.40;72.00
66271;DHT22;53063;39.614;8.814;2022-09-03T20:02:38;26.50;72.30
66271;DHT22;53063;39.614;8.814;2022-09-03T20:05:24;26.70;72.00
66271;DHT22;53063;39.614;8.814;2022-09-03T20:08:12;26.70;72.00
66271;DHT22;53063;39.614;8.814;2022-09-03T20:10:59;26.60;72.60
66271;DHT22;53063;39.614;8.814;2022-09-03T20:13:26;26.70;72.40
66271;DHT22;53063;39.614;8.814;2022-09-03T20:16:12;26.70;72.80
66271;DHT22;53063;39.614;8.814;2022-09-03T20:21:37;26.70;72.10
66271;DHT22;53063;39.614;8.814;2022-09-03T20:24:41;26.60;72.00
66271;DHT22;53063;39.614;8.814;2022-09-03T20:27:34;26.40;72.50
66271;DHT22;53063;39.614;8.814;2022-09-03T20:30:15;26.60;72.70
66271;DHT22;53063;39.614;8.814;2022-09-03T20:44:14;26.70;70.70
66271;DHT22;53063;39.614;8.814;2022-09-03T20:52:03;26.40;67.30
66271;DHT22;53063;39.614;8.814;2022-09-03T20:54:36;26.60;64.90
66271;DHT22;53063;39.614;8.814;2022-09-03T21:00:10;26.60;62.90
66271;DHT22;53063;39.614;8.814;2022-09-03T21:09:25;26.50;65.40
66271;DHT22;53063;39.614;8.814;2022-09-03T21:18:15;26.30;62.40
66271;DHT22;53063;39.614;8.814;2022-09-03T21:23:43;26.30;62.50
66271;DHT22;53063;39.614;8.814;2022-09-03T21:26:18;26.20;66.90
66271;DHT22;53063;39.614;8.814;2022-09-03T21:29:02;26.00;68.30
66271;DHT22;53063;39.614;8.814;2022-09-03T21:31:58;26.00;69.00
66271;DHT22;53063;39.614;8.814;2022-09-03T21:34:40;25.80;70.20
66271;DHT22;53063;39.614;8.814;2022-09-03T21:37:10;25.80;71.30
66271;DHT22;53063;39.614;8.814;2022-09-03T21:39:47;25.70;70.90
66271;DHT22;53063;39.614;8.814;2022-09-03T21:42:23;25.50;71.10
66271;DHT22;53063;39.614;8.814;2022-09-03T21:45:01;25.60;71.40
66271;DHT22;53063;39.614;8.814;2022-09-03T21:47:38;25.60;70.70
66271;DHT22;53063;39.614;8.814;2022-09-03T21:50:17;25.70;69.90
66271;DHT22;53063;39.614;8.814;2022-09-03T21:55:20;25.40;68.70
66271;DHT22;53063;39.614;8.814;2022-09-03T22:00:26;25.40;67.80
66271;DHT22;53063;39.614;8.814;2022-09-03T22:02:58;25.40;66.80
66271;DHT22;53063;39.614;8.814;2022-09-03T22:05:32;25.70;66.70
66271;DHT22;53063;39.614;8.814;2022-09-03T22:08:15;25.80;66.60
66271;DHT22;53063;39.614;8.814;2022-09-03T22:11:08;25.80;66.90
66271;DHT22;53063;39.614;8.814;2022-09-03T22:14:11;25.70;67.10
66271;DHT22;53063;39.614;8.814;2022-09-03T22:19:17;25.80;68.20
66271;DHT22;53063;39.614;8.814;2022-09-03T22:21:59;25.90;68.60
66271;DHT22;53063;39.614;8.814;2022-09-03T22:24:38;25.90;69.20
66271;DHT22;53063;39.614;8.814;2022-09-03T22:27:25;25.80;70.20
66271;DHT22;53063;39.614;8.814;2022-09-03T22:30:06;25.80;70.60
66271;DHT22;53063;39.614;8.814;2022-09-03T22:32:52;25.80;70.80
66271;DHT22;53063;39.614;8.814;2022-09-03T22:35:43;25.70;71.10
66271;DHT22;53063;39.614;8.814;2022-09-03T22:38:40;25.80;70.80
66271;DHT22;53063;39.614;8.814;2022-09-03T22:44:08;25.80;70.50
66271;DHT22;53063;39.614;8.814;2022-09-03T22:56:10;25.70;71.90
66271;DHT22;53063;39.614;8.814;2022-09-03T23:01:32;25.90;75.30
66271;DHT22;53063;39.614;8.814;2022-09-03T23:06:40;25.40;81.00